Hampton, VA

3:27 PM EDT on August 28, 2016 (GMT -0400)
Newmarket | | Change Station

Elev 33 ft 37.01 °N, 76.44 °W | Updated 7 minutes ago

Light Drizzle
Light Drizzle
88.9 °F
Feels Like 94 °F
N
2.2
Wind Variable Wind from West

Today
High -- | Low -- °F
--% Chance of Precip.
Yesterday
High -- | Low -- °F
Precip. -- in
Pressure 30.16 in
Visibility 10.0 miles
Clouds Few 3200 ft
Scattered Clouds 20000 ft
Heat Index 94 °F
Dew Point 70 °F
Humidity 53%
Rainfall 0.00 in
Snow Depth Not available.
6:33 AM 7:39 PM
Waning Crescent, 14% visible
SPECI KLFI 281923Z AUTO 06010KT 10SM -DZ FEW032 SCT200 30/21 A3016 RMK AO2 DZB23
Pressure 30.16 in
Visibility 10.0 miles
Clouds Few 3200 ft
Scattered Clouds 20000 ft
Heat Index 94 °F
Dew Point 70 °F
Humidity 53%
Rainfall 0.00 in
Snow Depth Not available.
6:33 AM 7:39 PM
Waning Crescent, 14% visible
SPECI KLFI 281923Z AUTO 06010KT 10SM -DZ FEW032 SCT200 30/21 A3016 RMK AO2 DZB23

10-Day Weather Forecast

Almanac

Astronomy

Aug. 28, 2016 Rise Set
Actual Time
Civil Twilight
Nautical Twilight
Astronomical Twilight
Moon
Length of Visible Light
Length of Day
Tomorrow will be .
, % of the Moon is Illuminated

Today's Extremes

State Highs State Lows

Community

WunderPhotos

Upload Photos

1,935,661 photos uploaded!

WunderBlog® & News

Nearby

Air Quality

  Air Quality AQ Index Pollutant
Not available.

Snow Depth

Station Depth Elevation

Earthquake Activity

City Distance Mag. Time & Date
Minimum magnitude displayed is 2.5.

Coastal Water Temperatures

Place Temperature

Stations

Nearby Weather Stations

Station Location Temp. Windchill Dew Point Humidity Wind Precip. Elev Updated Type
                   

Watches & Warnings

There are currently no watches in effect.